createdAt,value
2018-12-22T00:02:22.263Z,82.12
2018-12-22T00:04:53.339Z,83.01
2018-12-22T00:07:24.415Z,81.71
2018-12-22T00:09:57.845Z,82.15
2018-12-22T00:12:29.381Z,82.10
2018-12-22T00:15:00.319Z,81.08
2018-12-22T00:17:31.508Z,80.62
2018-12-22T00:20:02.814Z,81.15
2018-12-22T00:22:34.456Z,80.80
2018-12-22T00:25:05.903Z,82.18
2018-12-22T00:27:38.697Z,81.30
2018-12-22T00:30:09.987Z,82.23
2018-12-22T00:32:41.175Z,80.27
2018-12-22T00:35:12.184Z,81.47
2018-12-22T00:37:47.747Z,81.58
2018-12-22T00:40:19.146Z,81.73
2018-12-22T00:42:50.079Z,77.97
2018-12-22T00:45:21.219Z,80.89
2018-12-22T00:47:52.215Z,79.95
2018-12-22T00:50:23.140Z,79.69
2018-12-22T00:52:54.259Z,80.56
2018-12-22T00:55:25.263Z,80.51
2018-12-22T00:57:56.227Z,80.45
2018-12-22T01:00:27.482Z,79.83
2018-12-22T01:02:58.544Z,80.13
2018-12-22T01:05:29.476Z,80.27
2018-12-22T01:08:00.495Z,81.09
2018-12-22T01:10:34.172Z,80.83
2018-12-22T01:13:05.846Z,80.73
2018-12-22T01:15:37.086Z,81.18
2018-12-22T01:18:08.257Z,80.64
2018-12-22T01:20:40.176Z,80.72
2018-12-22T01:23:10.884Z,80.48
2018-12-22T01:25:41.867Z,81.08
2018-12-22T01:28:15.473Z,80.76
2018-12-22T01:30:47.171Z,80.87
2018-12-22T01:33:17.993Z,81.58
2018-12-22T01:35:48.915Z,80.52
2018-12-22T01:38:19.750Z,80.50
2018-12-22T01:40:50.736Z,81.06
2018-12-22T01:43:24.187Z,81.25
2018-12-22T01:45:55.706Z,80.65
2018-12-22T01:48:26.761Z,81.03
2018-12-22T01:50:57.751Z,80.90
2018-12-22T01:53:28.658Z,80.56
2018-12-22T01:56:02.179Z,80.79
2018-12-22T01:58:33.484Z,81.43
2018-12-22T02:01:04.641Z,81.23
2018-12-22T02:03:36.195Z,81.20
2018-12-22T02:06:07.211Z,82.19
2018-12-22T02:08:38.179Z,81.58
2018-12-22T02:11:09.189Z,81.83
2018-12-22T02:13:40.315Z,81.53
2018-12-22T02:16:11.386Z,82.00
2018-12-22T02:18:43.155Z,82.12
2018-12-22T02:21:13.939Z,81.04
2018-12-22T02:23:45.696Z,80.79
2018-12-22T02:26:19.119Z,80.94
2018-12-22T02:28:56.906Z,81.26
2018-12-22T02:31:26.522Z,80.20
2018-12-22T02:33:57.599Z,80.68
2018-12-22T02:36:28.496Z,80.79
2018-12-22T02:39:03.455Z,80.14
2018-12-22T02:41:34.707Z,80.28
2018-12-22T02:44:05.763Z,80.16
2018-12-22T02:46:36.783Z,80.67
2018-12-22T02:49:07.789Z,81.25
2018-12-22T02:51:41.373Z,81.14
2018-12-22T02:54:12.879Z,81.23
2018-12-22T02:56:45.270Z,80.54
2018-12-22T02:59:17.458Z,81.08
2018-12-22T03:04:17.864Z,80.63
2018-12-22T03:06:48.893Z,80.82
2018-12-22T03:09:19.891Z,81.06
2018-12-22T03:11:50.827Z,80.31
2018-12-22T03:14:25.472Z,80.03
2018-12-22T03:16:56.918Z,80.76
2018-12-22T03:19:28.518Z,80.49
2018-12-22T03:21:59.600Z,80.71
2018-12-22T03:24:30.792Z,79.91
2018-12-22T03:27:01.551Z,80.71
2018-12-22T03:29:32.568Z,81.14
2018-12-22T03:32:03.693Z,80.60
2018-12-22T03:34:34.553Z,81.19
2018-12-22T03:37:05.859Z,80.80
2018-12-22T03:39:37.519Z,80.48
2018-12-22T03:42:08.698Z,80.03
2018-12-22T03:44:39.583Z,79.94
2018-12-22T03:47:10.645Z,80.97
2018-12-22T03:49:44.345Z,80.31
2018-12-22T03:52:18.312Z,81.09
2018-12-22T03:54:49.531Z,80.30
2018-12-22T03:57:20.465Z,79.87
2018-12-22T03:59:54.136Z,79.44
2018-12-22T04:02:27.858Z,79.46
2018-12-22T04:04:59.552Z,80.13
2018-12-22T04:07:30.467Z,80.03
2018-12-22T04:10:01.979Z,79.90
2018-12-22T04:12:32.851Z,79.91
2018-12-22T04:15:04.007Z,79.62
2018-12-22T04:17:35.738Z,78.85
2018-12-22T04:20:06.745Z,79.60
2018-12-22T04:22:37.725Z,80.11
2018-12-22T04:25:08.457Z,80.03
2018-12-22T04:27:39.491Z,80.12
2018-12-22T04:30:10.451Z,77.71
2018-12-22T04:32:41.259Z,79.55
2018-12-22T04:35:12.251Z,78.87
2018-12-22T04:37:43.383Z,79.29
2018-12-22T04:40:14.288Z,79.55
2018-12-22T04:42:47.923Z,79.90
2018-12-22T04:45:19.052Z,79.16
2018-12-22T04:47:50.133Z,79.39
2018-12-22T04:50:21.319Z,79.42
2018-12-22T04:52:56.131Z,79.75
2018-12-22T04:55:27.162Z,78.15
2018-12-22T04:57:58.274Z,77.00
2018-12-22T05:00:29.540Z,76.09
2018-12-22T05:03:00.564Z,78.68
2018-12-22T05:05:31.812Z,79.29
2018-12-22T05:08:03.075Z,78.70
2018-12-22T05:10:34.146Z,77.67
2018-12-22T05:13:06.050Z,77.54
2018-12-22T05:15:37.771Z,79.33
2018-12-22T05:18:08.751Z,78.26
2018-12-22T05:20:39.833Z,77.54
2018-12-22T05:23:10.891Z,79.10
2018-12-22T05:25:42.503Z,78.64
2018-12-22T05:28:13.622Z,79.80
2018-12-22T05:30:47.238Z,78.86
2018-12-22T05:33:18.723Z,78.70
2018-12-22T05:35:49.709Z,80.29
2018-12-22T05:38:20.610Z,79.46
2018-12-22T05:40:51.795Z,78.86
2018-12-22T05:43:22.572Z,79.77
2018-12-22T05:45:53.836Z,79.57
2018-12-22T05:48:24.947Z,79.62
2018-12-22T05:50:55.739Z,79.87
2018-12-22T05:53:26.773Z,79.16
2018-12-22T05:56:02.702Z,79.72
2018-12-22T05:58:33.795Z,78.96
2018-12-22T06:01:13.747Z,77.60
2018-12-22T06:03:44.607Z,77.45
2018-12-22T06:06:15.901Z,77.89
2018-12-22T06:08:47.619Z,77.43
2018-12-22T06:11:21.228Z,77.77
2018-12-22T06:13:50.766Z,77.00
2018-12-22T06:16:21.710Z,76.83
2018-12-22T06:18:55.508Z,77.69
2018-12-22T06:21:27.095Z,77.74
2018-12-22T06:23:58.005Z,77.63
2018-12-22T06:26:28.858Z,77.92
2018-12-22T06:28:59.931Z,78.67
2018-12-22T06:31:30.909Z,77.65
2018-12-22T06:34:01.967Z,76.28
2018-12-22T06:36:32.755Z,76.32
2018-12-22T06:39:06.413Z,76.79
2018-12-22T06:41:38.137Z,77.21
2018-12-22T06:44:09.255Z,78.50
2018-12-22T06:46:40.253Z,77.54
2018-12-22T06:49:11.210Z,78.37
2018-12-22T06:51:45.389Z,76.76
2018-12-22T06:54:16.351Z,78.18
2018-12-22T06:56:50.755Z,76.20
2018-12-22T06:59:22.396Z,77.96
2018-12-22T07:01:54.000Z,75.86
2018-12-22T07:04:28.053Z,77.37
2018-12-22T07:06:59.385Z,76.55
2018-12-22T07:09:30.515Z,78.33
2018-12-22T07:12:03.991Z,76.11
2018-12-22T07:14:35.571Z,76.59
2018-12-22T07:17:06.397Z,78.08
2018-12-22T07:19:37.735Z,76.04
2018-12-22T07:22:09.513Z,78.06
2018-12-22T07:24:38.958Z,76.70
2018-12-22T07:27:10.043Z,77.22
2018-12-22T07:29:40.967Z,78.06
2018-12-22T07:32:12.022Z,76.83
2018-12-22T07:34:43.136Z,77.44
2018-12-22T07:37:14.275Z,74.34
2018-12-22T07:39:45.247Z,76.75
2018-12-22T07:42:16.488Z,76.86
2018-12-22T07:44:51.128Z,75.44
2018-12-22T07:47:21.934Z,77.56
2018-12-22T07:49:53.754Z,76.14
2018-12-22T07:52:24.808Z,75.90
2018-12-22T07:54:55.836Z,75.18
2018-12-22T07:57:27.043Z,76.96
2018-12-22T07:59:57.878Z,76.72
2018-12-22T08:02:31.447Z,76.96
2018-12-22T08:05:03.381Z,76.09
2018-12-22T08:07:34.807Z,75.99
2018-12-22T08:10:06.761Z,77.24
2018-12-22T08:12:36.285Z,74.54
2018-12-22T08:15:07.655Z,76.65
2018-12-22T08:17:38.691Z,76.64
2018-12-22T08:20:09.695Z,75.88
2018-12-22T08:22:43.787Z,76.42
2018-12-22T08:25:15.187Z,76.03
2018-12-22T08:27:48.888Z,74.83
2018-12-22T08:30:20.112Z,73.80
2018-12-22T08:32:51.387Z,76.08
2018-12-22T08:35:22.383Z,72.92
2018-12-22T08:37:53.443Z,76.21
2018-12-22T08:40:24.530Z,75.15
2018-12-22T08:42:55.589Z,75.43
2018-12-22T08:45:26.919Z,75.29
2018-12-22T08:48:00.592Z,76.14
2018-12-22T08:50:32.087Z,74.44
2018-12-22T08:53:03.151Z,73.09
2018-12-22T08:55:34.191Z,73.75
2018-12-22T08:58:04.973Z,72.93
2018-12-22T09:00:35.754Z,74.61
2018-12-22T09:03:06.644Z,72.47
2018-12-22T09:08:09.175Z,74.87
2018-12-22T09:10:40.530Z,74.15
2018-12-22T09:13:11.516Z,71.91
2018-12-22T09:15:42.579Z,73.27
2018-12-22T09:18:13.920Z,72.12
2018-12-22T09:20:44.808Z,74.04
2018-12-22T09:23:15.711Z,73.92
2018-12-22T09:25:46.675Z,70.87
2018-12-22T09:28:20.264Z,70.48
2018-12-22T09:30:51.712Z,70.76
2018-12-22T09:33:22.764Z,72.61
2018-12-22T09:35:53.945Z,73.46
2018-12-22T09:38:24.990Z,72.33
2018-12-22T09:40:56.720Z,73.50
2018-12-22T09:43:28.527Z,74.76
2018-12-22T09:45:59.367Z,75.61
2018-12-22T09:48:30.481Z,75.32
2018-12-22T09:51:01.352Z,76.46
2018-12-22T09:53:32.372Z,74.94
2018-12-22T09:56:03.414Z,76.95
2018-12-22T09:58:36.635Z,76.79
2018-12-22T10:01:09.418Z,77.84
2018-12-22T10:03:42.044Z,77.33
2018-12-22T10:06:13.428Z,77.73
2018-12-22T10:08:44.700Z,77.79
2018-12-22T10:11:15.519Z,78.10
2018-12-22T10:13:46.337Z,77.79
2018-12-22T10:16:17.503Z,78.41
2018-12-22T10:18:48.502Z,79.08
2018-12-22T10:21:19.565Z,78.27
2018-12-22T10:23:51.479Z,78.37
2018-12-22T10:26:22.287Z,78.50
2018-12-22T10:28:53.401Z,78.89
2018-12-22T10:31:24.421Z,78.85
2018-12-22T10:33:56.193Z,79.02
2018-12-22T10:36:27.073Z,79.57
2018-12-22T10:38:58.007Z,79.52
2018-12-22T10:41:29.203Z,79.56
2018-12-22T10:44:00.270Z,78.67
2018-12-22T10:46:31.211Z,78.64
2018-12-22T10:49:02.979Z,76.62
2018-12-22T10:51:34.369Z,78.72
2018-12-22T10:54:05.219Z,78.36
2018-12-22T10:56:35.975Z,79.34
2018-12-22T10:59:09.455Z,76.67
2018-12-22T11:01:41.124Z,77.03
2018-12-22T11:04:11.948Z,75.53
2018-12-22T11:06:45.639Z,75.32
2018-12-22T11:09:18.560Z,74.09
2018-12-22T11:11:49.899Z,74.99
2018-12-22T11:14:20.923Z,75.40
2018-12-22T11:16:52.165Z,74.01
2018-12-22T11:19:23.447Z,74.91
2018-12-22T11:21:56.977Z,73.79
2018-12-22T11:24:28.327Z,73.18
2018-12-22T11:26:59.887Z,73.62
2018-12-22T11:29:31.642Z,74.21
2018-12-22T11:32:03.379Z,73.62
2018-12-22T11:34:37.227Z,74.96
2018-12-22T11:37:08.894Z,72.97
2018-12-22T11:39:39.884Z,73.37
2018-12-22T11:42:10.958Z,74.48
2018-12-22T11:44:42.059Z,75.01
2018-12-22T11:47:28.017Z,74.23
2018-12-22T11:49:59.324Z,73.81
2018-12-22T11:52:33.051Z,74.07
2018-12-22T11:55:05.503Z,75.26
2018-12-22T11:57:36.762Z,74.91
2018-12-22T12:00:09.867Z,75.40
2018-12-22T12:02:41.445Z,74.41
2018-12-22T12:05:12.541Z,75.08
2018-12-22T12:07:43.469Z,75.87
2018-12-22T12:10:17.083Z,74.52
2018-12-22T12:12:50.819Z,75.75
2018-12-22T12:15:26.915Z,73.39
2018-12-22T12:20:06.672Z,75.96
2018-12-22T12:22:38.139Z,76.18
2018-12-22T12:25:11.772Z,76.53
2018-12-22T12:27:43.261Z,75.93
2018-12-22T12:30:14.348Z,76.94
2018-12-22T12:32:45.316Z,76.37
2018-12-22T12:35:16.267Z,73.83
2018-12-22T12:37:47.347Z,75.37
2018-12-22T12:40:18.507Z,72.81
2018-12-22T12:42:49.239Z,76.25
2018-12-22T12:45:20.143Z,74.82
2018-12-22T12:47:50.987Z,72.53
2018-12-22T12:50:24.436Z,75.09
2018-12-22T12:52:56.217Z,74.48
2018-12-22T12:55:27.364Z,75.39
2018-12-22T12:58:01.969Z,71.76
2018-12-22T13:00:33.867Z,74.67
2018-12-22T13:03:08.458Z,74.48
2018-12-22T13:05:39.643Z,73.89
2018-12-22T13:08:10.715Z,74.12
2018-12-22T13:10:44.157Z,74.19
2018-12-22T13:13:34.890Z,74.58
2018-12-22T13:16:05.885Z,72.95
2018-12-22T13:18:36.957Z,74.17
2018-12-22T13:21:08.816Z,72.53
2018-12-22T13:23:39.943Z,72.75
2018-12-22T13:26:11.151Z,70.86
2018-12-22T13:28:42.869Z,71.29
2018-12-22T13:31:17.592Z,69.03
2018-12-22T13:33:51.330Z,73.20
2018-12-22T13:36:22.831Z,73.34
2018-12-22T13:39:04.779Z,71.57
2018-12-22T13:41:36.902Z,69.41
2018-12-22T13:44:08.117Z,72.91
2018-12-22T13:46:39.839Z,70.97
2018-12-22T13:49:11.008Z,70.38
2018-12-22T13:51:44.756Z,71.45
2018-12-22T13:54:21.013Z,72.82
2018-12-22T13:56:54.587Z,70.44
2018-12-22T13:59:28.773Z,69.47
2018-12-22T14:02:04.013Z,71.16
2018-12-22T14:04:36.357Z,71.66
2018-12-22T14:07:10.427Z,72.68
2018-12-22T14:09:42.689Z,73.49
2018-12-22T14:12:16.859Z,72.79
2018-12-22T14:14:48.249Z,70.96
2018-12-22T14:17:32.323Z,71.96
2018-12-22T14:20:13.816Z,70.26
2018-12-22T14:22:44.479Z,69.85
2018-12-22T14:25:25.590Z,72.42
2018-12-22T14:27:59.709Z,70.33
2018-12-22T14:30:30.618Z,70.81
2018-12-22T14:33:01.782Z,70.01
2018-12-22T14:35:45.895Z,70.95
2018-12-22T14:38:16.951Z,71.78
2018-12-22T14:40:48.255Z,72.14
2018-12-22T14:43:19.163Z,71.33
2018-12-22T14:45:50.189Z,71.77
2018-12-22T14:48:21.083Z,67.22
2018-12-22T14:50:52.271Z,71.36
2018-12-22T14:53:23.247Z,71.58
2018-12-22T14:55:55.760Z,71.25
2018-12-22T14:58:29.437Z,71.39
2018-12-22T15:01:00.474Z,70.55
2018-12-22T15:03:33.796Z,69.51
2018-12-22T15:06:05.303Z,71.10
2018-12-22T15:08:36.495Z,68.38
2018-12-22T15:11:07.619Z,72.33
2018-12-22T15:16:10.364Z,74.00
2018-12-22T15:18:41.155Z,72.56
2018-12-22T15:21:12.663Z,72.13
2018-12-22T15:23:45.071Z,73.07
2018-12-22T15:26:16.358Z,72.27
2018-12-22T15:28:47.485Z,72.34
2018-12-22T15:31:17.455Z,71.06
2018-12-22T15:33:48.304Z,71.75
2018-12-22T15:36:19.249Z,72.12
2018-12-22T15:38:48.931Z,74.02
2018-12-22T15:41:22.491Z,74.08
2018-12-22T15:43:54.052Z,73.87
2018-12-22T15:46:25.021Z,72.34
2018-12-22T15:48:55.912Z,73.60
2018-12-22T15:51:27.398Z,73.86
2018-12-22T15:53:58.199Z,74.47
2018-12-22T15:56:29.219Z,74.45
2018-12-22T15:59:02.836Z,75.06
2018-12-22T16:01:34.251Z,72.18
2018-12-22T16:04:05.432Z,75.68
2018-12-22T16:06:36.771Z,75.89
2018-12-22T16:09:10.623Z,74.26
2018-12-22T16:11:42.122Z,75.41
2018-12-22T16:14:13.067Z,77.27
2018-12-22T16:16:44.295Z,77.22
2018-12-22T16:19:15.236Z,73.69
2018-12-22T16:21:46.659Z,75.91
2018-12-22T16:24:18.491Z,75.57
2018-12-22T16:26:52.054Z,74.83
2018-12-22T16:29:33.608Z,75.54
2018-12-22T16:32:04.929Z,73.27
2018-12-22T16:34:39.207Z,74.37
2018-12-22T16:37:10.874Z,72.41
2018-12-22T16:39:42.074Z,76.70
2018-12-22T16:42:13.299Z,74.30
2018-12-22T16:44:44.229Z,76.85
2018-12-22T16:47:15.123Z,75.31
2018-12-22T16:49:46.831Z,74.91
2018-12-22T16:52:17.856Z,75.08
2018-12-22T16:54:48.779Z,75.37
2018-12-22T16:57:19.941Z,76.30
2018-12-22T16:59:51.800Z,76.19
2018-12-22T17:02:40.986Z,76.42
2018-12-22T17:05:19.168Z,75.22
2018-12-22T17:07:50.172Z,75.24
2018-12-22T17:10:21.362Z,74.75
2018-12-22T17:12:51.129Z,75.56
2018-12-22T17:15:23.829Z,76.13
2018-12-22T17:17:55.199Z,75.49
2018-12-22T17:20:28.668Z,76.26
2018-12-22T17:23:15.959Z,75.79
2018-12-22T17:25:54.583Z,75.66
2018-12-22T17:28:28.438Z,75.62
2018-12-22T17:30:58.924Z,76.80
2018-12-22T17:33:32.640Z,76.85
2018-12-22T17:36:04.851Z,76.83
2018-12-22T17:38:36.426Z,76.69
2018-12-22T17:41:07.575Z,76.68
2018-12-22T17:43:39.999Z,77.06
2018-12-22T17:46:11.623Z,77.63
2018-12-22T17:48:43.580Z,77.33
2018-12-22T17:51:14.726Z,77.17
2018-12-22T17:53:45.778Z,77.26
2018-12-22T17:56:16.721Z,77.55
2018-12-22T18:01:49.907Z,77.16
2018-12-22T18:04:21.147Z,77.13
2018-12-22T18:06:52.828Z,78.42
2018-12-22T18:09:26.323Z,77.90
2018-12-22T18:11:57.771Z,77.70
2018-12-22T18:14:28.831Z,77.87
2018-12-22T18:17:02.413Z,77.59
2018-12-22T18:19:37.324Z,77.92
2018-12-22T18:22:08.631Z,78.00
2018-12-22T18:24:42.178Z,78.30
2018-12-22T18:27:13.624Z,77.96
2018-12-22T18:29:44.503Z,77.97
2018-12-22T18:32:15.539Z,77.94
2018-12-22T18:34:49.189Z,78.46
2018-12-22T18:37:20.633Z,78.91
2018-12-22T18:39:51.804Z,78.79
2018-12-22T18:42:22.919Z,78.99
2018-12-22T18:44:53.108Z,78.56
2018-12-22T18:47:24.883Z,78.15
2018-12-22T18:49:58.871Z,78.39
2018-12-22T18:52:30.411Z,78.59
2018-12-22T18:55:01.363Z,78.29
2018-12-22T18:57:32.267Z,78.72
2018-12-22T19:00:07.248Z,78.35
2018-12-22T19:02:38.567Z,78.14
2018-12-22T19:05:12.887Z,78.36
2018-12-22T19:07:43.031Z,78.63
2018-12-22T19:10:22.354Z,79.23
2018-12-22T19:12:56.009Z,79.61
2018-12-22T19:15:26.624Z,79.13
2018-12-22T19:18:00.555Z,78.53
2018-12-22T19:20:53.213Z,79.66
2018-12-22T19:23:27.412Z,78.49
2018-12-22T19:25:59.037Z,78.92
2018-12-22T19:28:30.027Z,79.12
2018-12-22T19:31:03.673Z,78.88
2018-12-22T19:33:35.230Z,78.42
2018-12-22T19:36:06.944Z,78.10
2018-12-22T19:38:38.769Z,78.32
2018-12-22T19:41:12.131Z,79.04
2018-12-22T19:43:43.629Z,78.03
2018-12-22T19:46:14.518Z,78.68
2018-12-22T19:48:45.966Z,79.43
2018-12-22T19:51:16.814Z,79.10
2018-12-22T19:53:47.820Z,78.50
2018-12-22T19:56:19.594Z,78.99
2018-12-22T19:58:50.775Z,78.95
2018-12-22T20:01:22.122Z,79.38
2018-12-22T20:03:53.167Z,78.53
2018-12-22T20:06:30.191Z,79.49
2018-12-22T20:09:01.436Z,78.58
2018-12-22T20:11:32.579Z,78.92
2018-12-22T20:14:03.647Z,78.89
2018-12-22T20:16:34.425Z,79.17
2018-12-22T20:19:05.362Z,79.35
2018-12-22T20:21:38.919Z,79.15
2018-12-22T20:24:10.233Z,79.38
2018-12-22T20:26:41.351Z,79.08
2018-12-22T20:29:14.859Z,79.40
2018-12-22T20:31:46.562Z,79.61
2018-12-22T20:34:17.531Z,79.08
2018-12-22T20:36:48.284Z,80.00
2018-12-22T20:39:19.243Z,79.69
2018-12-22T20:41:52.768Z,79.71
2018-12-22T20:44:24.167Z,79.58
2018-12-22T20:46:55.127Z,80.18
2018-12-22T20:49:26.390Z,79.49
2018-12-22T20:51:57.244Z,79.15
2018-12-22T20:54:30.863Z,79.71
2018-12-22T20:57:02.195Z,79.88
2018-12-22T20:59:35.756Z,79.32
2018-12-22T21:02:07.396Z,80.24
2018-12-22T21:04:38.497Z,80.10
2018-12-22T21:07:12.211Z,79.85
2018-12-22T21:12:47.604Z,79.40
2018-12-22T21:15:18.764Z,79.29
2018-12-22T21:17:49.912Z,79.03
2018-12-22T21:20:21.151Z,79.62
2018-12-22T21:27:56.457Z,79.42
2018-12-22T21:30:25.570Z,78.75
2018-12-22T21:32:59.337Z,78.98
2018-12-22T21:35:28.701Z,79.28
2018-12-22T21:37:58.436Z,78.25
2018-12-22T21:40:29.634Z,78.96
2018-12-22T21:43:00.583Z,78.77
2018-12-22T21:45:31.878Z,78.50
2018-12-22T21:48:02.875Z,77.53
2018-12-22T21:50:36.520Z,78.49
2018-12-22T21:53:07.880Z,78.32
2018-12-22T21:55:39.083Z,77.58
2018-12-22T21:58:10.098Z,78.64
2018-12-22T22:00:43.237Z,77.42
2018-12-22T22:03:13.936Z,78.15
2018-12-22T22:05:45.192Z,78.57
2018-12-22T22:08:16.084Z,77.88
2018-12-22T22:10:47.125Z,77.06
2018-12-22T22:13:18.158Z,77.42
2018-12-22T22:15:51.652Z,77.55
2018-12-22T22:18:23.252Z,78.31
2018-12-22T22:20:54.243Z,77.98
2018-12-22T22:23:25.074Z,79.12
2018-12-22T22:25:56.251Z,78.49
2018-12-22T22:28:26.043Z,77.94
2018-12-22T22:30:57.163Z,78.97
2018-12-22T22:33:28.111Z,78.55
2018-12-22T22:35:59.107Z,78.18
2018-12-22T22:38:30.317Z,78.50
2018-12-22T22:41:01.285Z,78.82
2018-12-22T22:43:32.133Z,78.23
2018-12-22T22:46:04.024Z,78.29
2018-12-22T22:48:34.879Z,78.74
2018-12-22T22:51:08.242Z,78.05
2018-12-22T22:53:39.583Z,78.37
2018-12-22T22:56:10.631Z,78.32
2018-12-22T22:58:41.536Z,79.09
2018-12-22T23:01:12.659Z,77.60
2018-12-22T23:03:43.701Z,78.06
2018-12-22T23:06:14.824Z,78.09
2018-12-22T23:08:45.959Z,78.67
2018-12-22T23:11:17.005Z,78.37
2018-12-22T23:13:48.059Z,77.64
2018-12-22T23:16:19.528Z,78.10
2018-12-22T23:18:51.066Z,78.00
2018-12-22T23:21:24.589Z,78.34
2018-12-22T23:23:55.991Z,78.14
2018-12-22T23:26:26.892Z,78.23
2018-12-22T23:29:00.503Z,78.12
2018-12-22T23:31:31.892Z,78.44
2018-12-22T23:34:03.064Z,78.43
2018-12-22T23:36:34.593Z,78.66
2018-12-22T23:39:08.703Z,78.21
2018-12-22T23:41:42.414Z,78.06
2018-12-22T23:44:13.847Z,78.31
2018-12-22T23:46:44.667Z,78.49
2018-12-22T23:49:16.553Z,77.95
2018-12-22T23:51:47.412Z,78.05
2018-12-22T23:54:18.380Z,78.21
2018-12-22T23:56:49.396Z,78.71
2018-12-22T23:59:24.883Z,78.98
